Nearby METAR Reports

 

KSFB - Sanford/Orlando, Florida, USA
Distance from station: Ws 8mi, 12km
Aktualizacja: Fri 09/21/18 5:53pm EDT
Bezchmurnie
Bezchmurnie
 Wiatr z Ws
Wiatr: Ws 14 mph , 22 km/h
Temperatura: 86°F , 30°C
Heat Index: 91°F , 33°C
Punkt Rosy: 70°F , 21°C
Wilgotność: 59%
Ciśnienie: 30.03 inHg , 1016.9 hPa
Clouds: Bezchmurnie
Visibility: 10 miles , 16 km
2018/09/21 21:53 KSFB 212153Z 08012KT 10SM CLR 30/21 A3003 RMK AO2 SLP167 T03000206
KORL - Orlando, Florida, USA
Distance from station: Pd 15mi, 24km
Aktualizacja: Fri 09/21/18 5:53pm EDT
Bezchmurnie
Bezchmurnie
 Wiatr z WsPnWs
Wiatr: WsPnWs 17 mph , 28 km/h
Temperatura: 86°F , 30°C
Heat Index: 93°F , 34°C
Punkt Rosy: 73°F , 23°C
Wilgotność: 66%
Ciśnienie: 30.02 inHg , 1016.6 hPa
Clouds: Bezchmurnie
Visibility: 10 miles , 16 km
2018/09/21 21:53 KORL 212153Z 07015KT 10SM CLR 30/23 A3002 RMK AO2 SLP167 T03000228
 
KDED - Deland, Florida, USA
Distance from station: Pn 21mi, 34km
Aktualizacja: Fri 09/21/18 5:55pm EDT
Przeważnie pochmurno
Przeważnie pochmurno
 Wiatr z Ws
Wiatr: Ws 16 mph , 26 km/h
Temperatura: 84°F , 29°C
Heat Index: 90°F , 32°C
Punkt Rosy: 73°F , 23°C
Wilgotność: 70%
Ciśnienie: 30.03 inHg , 1016.9 hPa
Clouds: Przeważnie pochmurno
Visibility: 10 miles , 16 km
Cloud details: Przeważnie pochmurno 2900 ft
Przeważnie pochmurno 4000 ft
Przeważnie pochmurno 6500 ft
2018/09/21 21:55 KDED 212155Z AUTO 09014KT 10SM BKN029 BKN040 BKN065 29/23 A3003 RMK AO2
KMCO - Orlando, Florida, USA
Distance from station: Pd 24mi, 39km
Aktualizacja: Fri 09/21/18 5:53pm EDT
Częściowe zachmurzenie
Częściowe zachmurzenie
 Wiatr z WsPnWs
Wiatr: WsPnWs 14 mph , 22 km/h
Temperatura: 84°F , 29°C
Heat Index: 90°F , 32°C
Punkt Rosy: 73°F , 23°C
Wilgotność: 70%
Ciśnienie: 30.02 inHg , 1016.6 hPa
Clouds: Częściowe zachmurzenie
Visibility: 10 miles , 16 km
Cloud details: Few Clouds 4500 ft
Częściowe zachmurzenie 10000 ft
Częściowe zachmurzenie 25000 ft
2018/09/21 21:53 KMCO 212153Z 06012KT 10SM FEW045 SCT100 SCT250 29/23 A3002 RMK AO2 SLP163 T02890228
 
KLEE - Leesburg, Florida, USA
Distance from station: Zd 29mi, 47km
Aktualizacja: Fri 09/21/18 5:53pm EDT
Lekki deszcz, Bezchmurnie
Lekki deszcz, Bezchmurnie
 Wiatr z WsPnWs
Wiatr: WsPnWs 12 mph , 19 km/h, Poryw: 21 mph , 33 km/h
Temperatura: 88°F , 31°C
Heat Index: 95°F , 35°C
Punkt Rosy: 72°F , 22°C
Wilgotność: 59%
Ciśnienie: 30.03 inHg , 1016.9 hPa
Podsumowanie: Lekki deszcz
Clouds: Bezchmurnie
Visibility: 10 miles , 16 km
2018/09/21 21:53 KLEE 212153Z 07010G18KT 10SM -RA CLR 31/22 A3003 RMK AO2 RAE2056B50 SLP167 P0000 T03060222
KEVB - New Smyrna Beach, Florida, USA
Distance from station: PnWs 31mi, 49km
Aktualizacja: Fri 09/21/18 5:47pm EDT
Przeważnie pochmurno
Przeważnie pochmurno
 Wiatr z Ws
Wiatr: Ws 13 mph , 20 km/h
Temperatura: 84°F , 29°C
Heat Index: 90°F , 32°C
Punkt Rosy: 73°F , 23°C
Wilgotność: 70%
Ciśnienie: 30.05 inHg , 1017.6 hPa
Clouds: Przeważnie pochmurno
Visibility: 10 miles , 16 km
Cloud details: Przeważnie pochmurno 2800 ft
2018/09/21 21:47 KEVB 212147Z 09011KT 10SM BKN028 29/23 A3005
 
KDAB - Daytona Beach, Florida, USA
Distance from station: PnPnZd 33mi, 53km
Aktualizacja: Fri 09/21/18 5:53pm EDT
Częściowe zachmurzenie
Częściowe zachmurzenie
 Wiatr z Ws
Wiatr: Ws 14 mph , 22 km/h
Temperatura: 84°F , 29°C
Heat Index: 90°F , 32°C
Punkt Rosy: 73°F , 23°C
Wilgotność: 70%
Ciśnienie: 30.04 inHg , 1017.3 hPa
Clouds: Częściowe zachmurzenie
Visibility: 10 miles , 16 km
Cloud details: Few Clouds 2800 ft
Częściowe zachmurzenie 15000 ft
2018/09/21 21:53 KDAB 212153Z 08012KT 10SM FEW028TCU SCT150 29/23 A3004 RMK AO2 SLP171 TCU OHD-N SW NW T02890228
KISM - Kissimmee/Orland, Florida, USA
Distance from station: Pd 34mi, 55km
Aktualizacja: Fri 09/21/18 5:56pm EDT
Przeważnie pochmurno
Przeważnie pochmurno
 Wiatr z varies
Wiatr: varies 5 mph , 7 km/h
Temperatura: 82°F , 28°C
Heat Index: 87°F , 31°C
Punkt Rosy: 73°F , 23°C
Wilgotność: 74%
Ciśnienie: 30.03 inHg , 1016.9 hPa
Clouds: Przeważnie pochmurno
Visibility: 10 miles , 16 km
Cloud details: Few Clouds 3300 ft
Przeważnie pochmurno 4900 ft
2018/09/21 21:56 KISM 212156Z VRB04KT 10SM FEW033 BKN049 28/23 A3003 RMK AO2 SLP169 T02830233
 
KTIX - Titusville, Florida, USA
Distance from station: WsPdWs 38mi, 61km
Aktualizacja: Fri 09/21/18 5:48pm EDT
Częściowe zachmurzenie
Częściowe zachmurzenie
 Wiatr z WsPnWs
Wiatr: WsPnWs 10 mph , 17 km/h
Temperatura: 88°F , 31°C
Heat Index: 96°F , 36°C
Punkt Rosy: 73°F , 23°C
Wilgotność: 62%
Ciśnienie: 30.03 inHg , 1016.9 hPa
Clouds: Częściowe zachmurzenie
Visibility: 7 miles , 11 km
Cloud details: Częściowe zachmurzenie 3200 ft
2018/09/21 21:48 KTIX 212148Z 07009KT 7SM SCT032 31/23 A3003
KOMN - Ormond Beach Vor, Florida, USA
Distance from station: PnPnZd 39mi, 63km
Aktualizacja: Fri 09/21/18 5:50pm EDT
Częściowe zachmurzenie
Częściowe zachmurzenie
 Wiatr z Ws
Wiatr: Ws 9 mph , 15 km/h, Poryw: 16 mph , 26 km/h
Temperatura: 82°F , 28°C
Heat Index: 87°F , 31°C
Punkt Rosy: 73°F , 23°C
Wilgotność: 74%
Ciśnienie: 30.05 inHg , 1017.6 hPa
Clouds: Częściowe zachmurzenie
Visibility: 7 miles , 11 km
Cloud details: Częściowe zachmurzenie 2700 ft
2018/09/21 21:50 KOMN 212150Z 08008G14KT 7SM SCT027 28/23 A3005
 
KTTS - Nasa Shuttle Fcl, Florida, USA
Distance from station: WsPdWs 39mi, 63km
Aktualizacja: Fri 09/21/18 11:56am EDT
NOT Current
Częściowe zachmurzenie
Częściowe zachmurzenie
 Wiatr z Ws
Wiatr: Ws 8 mph , 13 km/h
Temperatura: 88°F , 31°C
Heat Index: 95°F , 35°C
Punkt Rosy: 72°F , 22°C
Wilgotność: 59%
Ciśnienie: 30.10 inHg , 1019.3 hPa
Clouds: Częściowe zachmurzenie
Visibility: 10 miles , 16 km
Cloud details: Częściowe zachmurzenie 3300 ft
2018/09/21 15:56 KTTS 211556Z AUTO 09007KT 10SM SCT033 31/22 A3010 RMK AO2 SLP197 T03070223 $
KVVG - The Villages, Florida, USA
Distance from station: ZdPnZd 40mi, 64km
Aktualizacja: Wed 02/14/18 2:10pm EST
NOT Current

 Wiatr z calm
Wiatr: Cisza
Temperatura: 73°F , 23°C
Punkt Rosy: 66°F , 19°C
Wilgotność: 78%
Ciśnienie: 30.29 inHg , 1025.7 hPa
Visibility: 10 miles , 16 km
2018/02/14 19:10 KVVG 141910Z AUTO 00000KT 10SM 23/19 A3029 RMK A01
 
KXMR - Cape Canaveral, Florida, USA
Distance from station: WsPdWs 51mi, 83km
Aktualizacja: Fri 09/21/18 11:56am EDT
NOT Current
Few Clouds
Few Clouds
 Wiatr z PnWs
Wiatr: PnWs 9 mph , 15 km/h
Temperatura: 88°F , 31°C
Heat Index: 96°F , 36°C
Punkt Rosy: 73°F , 23°C
Wilgotność: 62%
Ciśnienie: 30.09 inHg , 1019 hPa
Clouds: Few Clouds
Visibility: 10 miles , 16 km
Cloud details: Few Clouds 2800 ft
2018/09/21 15:56 KXMR 211556Z AUTO 05008KT 10SM FEW028 31/23 A3009 RMK AO2 SLP192 T03100226 $
KGIF - Winter Haven, Florida, USA
Distance from station: PdPdZd 55mi, 88km
Aktualizacja: Fri 09/21/18 5:53pm EDT
Bezchmurnie
Bezchmurnie
 Wiatr z Ws
Wiatr: Ws 7 mph , 11 km/h
Temperatura: 84°F , 29°C
Heat Index: 90°F , 32°C
Punkt Rosy: 73°F , 23°C
Wilgotność: 70%
Ciśnienie: 30.03 inHg , 1016.9 hPa
Clouds: Bezchmurnie
Visibility: 10 miles , 16 km
2018/09/21 21:53 KGIF 212153Z AUTO 10006KT 10SM CLR 29/23 A3003 RMK AO2 SLP168 T02940228
 
KCOF - Patrick Afb/Coco, Florida, USA
Distance from station: PdWs 58mi, 94km
Aktualizacja: Fri 09/21/18 1:56pm EDT
NOT Current
Bezchmurnie
Bezchmurnie
 Wiatr z WsPnWs
Wiatr: WsPnWs 10 mph , 17 km/h
Temperatura: 88°F , 31°C
Heat Index: 96°F , 36°C
Punkt Rosy: 73°F , 23°C
Wilgotność: 62%
Ciśnienie: 30.07 inHg , 1018.3 hPa
Clouds: Bezchmurnie
Visibility: 10 miles , 16 km
2018/09/21 17:56 KCOF 211756Z AUTO 06009KT 10SM CLR 31/23 A3007 RMK AO2 LTG DSNT SW DZB1611E1621 SLP187 60000 T03090232 10312 20277 $
KINF - Inverness, Florida, USA
Distance from station: Zd 59mi, 95km
Aktualizacja: Fri 09/21/18 11:35am EDT
NOT Current
Haze, Przeważnie pochmurno
Haze, Przeważnie pochmurno
 Wiatr z calm
Wiatr: Cisza
Temperatura: 88°F , 31°C
Heat Index: 100°F , 38°C
Punkt Rosy: 77°F , 25°C
Wilgotność: 70%
Ciśnienie: 30.11 inHg , 1019.6 hPa
Podsumowanie: Haze
Clouds: Przeważnie pochmurno
Visibility: 5 miles , 8 km
Cloud details: Przeważnie pochmurno 2700 ft
Przeważnie pochmurno 3700 ft
Przeważnie pochmurno 5000 ft
2018/09/21 15:35 KINF 211535Z AUTO 00000KT 5SM HZ BKN027 BKN037 BKN050 31/25 A3011 RMK AO2
 
KOCF - Ocala Muni, Florida, USA
Distance from station: ZdPnZd 60mi, 96km
Aktualizacja: Fri 09/21/18 5:51pm EDT
Częściowe zachmurzenie
Częściowe zachmurzenie
 Wiatr z PnWs
Wiatr: PnWs 8 mph , 13 km/h, Poryw: 21 mph , 33 km/h
Temperatura: 88°F , 31°C
Heat Index: 95°F , 35°C
Punkt Rosy: 72°F , 22°C
Wilgotność: 59%
Ciśnienie: 30.02 inHg , 1016.6 hPa
Clouds: Częściowe zachmurzenie
Visibility: 10 miles , 16 km
Cloud details: Few Clouds 4100 ft
Częściowe zachmurzenie 5000 ft
2018/09/21 21:51 KOCF 212151Z 05007G18KT 240V080 10SM FEW041 SCT050 31/22 A3002 RMK AO2 SLP166 T03060217 $
KZPH - Zephyrhills, Florida, USA
Distance from station: PdZd 61mi, 99km
Aktualizacja: Fri 09/21/18 6:15pm EDT
Bezchmurnie
Bezchmurnie
 Wiatr z calm
Wiatr: Cisza
Temperatura: 84°F , 29°C
Heat Index: 92°F , 33°C
Punkt Rosy: 75°F , 24°C
Wilgotność: 74%
Ciśnienie: 30.03 inHg , 1016.9 hPa
Clouds: Bezchmurnie
2018/09/21 22:15 KZPH 212215Z AUTO 00000KT CLR 29/24 A3003 RMK AO2 T02880235 PWINO
 
KMLB - Melbourne, Florida, USA
Distance from station: PdWs 62mi, 100km
Aktualizacja: Fri 09/21/18 5:53pm EDT
Częściowe zachmurzenie
Częściowe zachmurzenie
 Wiatr z WsPnWs
Wiatr: WsPnWs 16 mph , 26 km/h
Temperatura: 84°F , 29°C
Heat Index: 89°F , 32°C
Punkt Rosy: 72°F , 22°C
Wilgotność: 66%
Ciśnienie: 30.01 inHg , 1016.3 hPa
Clouds: Częściowe zachmurzenie
Visibility: 10 miles , 16 km
Cloud details: Częściowe zachmurzenie 2700 ft
2018/09/21 21:53 KMLB 212153Z 06014KT 10SM SCT027 29/22 A3001 RMK AO2 SLP160 T02940222
KBOW - Bartow Municipal, Florida, USA
Distance from station: PdPdZd 63mi, 102km
Aktualizacja: Fri 09/21/18 6:15pm EDT
Bezchmurnie
Bezchmurnie
 Wiatr z Ws
Wiatr: Ws 7 mph , 11 km/h
Temperatura: 81°F , 27°C
Heat Index: 86°F , 30°C
Punkt Rosy: 73°F , 23°C
Wilgotność: 79%
Ciśnienie: 30.02 inHg , 1016.6 hPa
Clouds: Bezchmurnie
2018/09/21 22:15 KBOW 212215Z AUTO 09006KT CLR 27/23 A3002 RMK AO2